createdAt,value
2018-07-14T00:01:27.573Z,20.60
2018-07-14T00:03:56.085Z,20.60
2018-07-14T00:06:24.599Z,20.60
2018-07-14T00:08:53.131Z,20.60
2018-07-14T00:11:21.615Z,20.50
2018-07-14T00:13:50.192Z,20.50
2018-07-14T00:16:18.789Z,20.60
2018-07-14T00:18:47.259Z,20.60
2018-07-14T00:21:15.725Z,20.60
2018-07-14T00:23:44.239Z,20.50
2018-07-14T00:26:16.932Z,20.50
2018-07-14T00:28:45.445Z,20.50
2018-07-14T00:31:13.943Z,20.50
2018-07-14T00:33:42.416Z,20.30
2018-07-14T00:36:11.918Z,20.40
2018-07-14T00:41:08.603Z,20.30
2018-07-14T00:43:37.072Z,20.30
2018-07-14T00:48:33.777Z,20.40
2018-07-14T00:51:02.341Z,20.40
2018-07-14T00:53:30.947Z,20.30
2018-07-14T00:55:59.448Z,20.30
2018-07-14T00:58:27.952Z,20.30
2018-07-14T01:00:56.447Z,20.40
2018-07-14T01:03:24.945Z,20.40
2018-07-14T01:05:53.529Z,20.50
2018-07-14T01:08:21.999Z,20.50
2018-07-14T01:10:50.511Z,20.50
2018-07-14T01:13:18.975Z,20.40
2018-07-14T01:15:47.745Z,20.30
2018-07-14T01:20:44.352Z,20.20
2018-07-14T01:23:12.820Z,20.20
2018-07-14T01:25:41.601Z,20.10
2018-07-14T01:28:10.060Z,20.10
2018-07-14T01:30:38.565Z,20.10
2018-07-14T01:33:07.027Z,20.10
2018-07-14T01:35:35.505Z,20.10
2018-07-14T01:38:03.978Z,20.10
2018-07-14T01:40:32.500Z,20.00
2018-07-14T01:43:01.033Z,20.00
2018-07-14T01:47:57.628Z,20.10
2018-07-14T01:50:26.121Z,20.10
2018-07-14T01:52:54.592Z,20.10
2018-07-14T01:55:23.072Z,20.10
2018-07-14T01:57:51.555Z,20.00
2018-07-14T02:00:20.024Z,20.00
2018-07-14T02:02:48.459Z,19.90
2018-07-14T02:05:16.928Z,19.90
2018-07-14T02:07:45.384Z,19.90
2018-07-14T02:10:13.863Z,19.80
2018-07-14T02:12:42.415Z,19.80
2018-07-14T02:15:10.932Z,19.80
2018-07-14T02:17:39.409Z,19.70
2018-07-14T02:20:07.867Z,19.70
2018-07-14T02:22:36.348Z,19.70
2018-07-14T02:25:04.811Z,19.60
2018-07-14T02:30:01.425Z,19.50
2018-07-14T02:32:29.901Z,19.50
2018-07-14T02:34:58.404Z,19.50
2018-07-14T02:37:26.955Z,19.50
2018-07-14T02:39:55.454Z,19.40
2018-07-14T02:42:23.940Z,19.30
2018-07-14T02:44:52.396Z,19.30
2018-07-14T02:47:20.865Z,19.40
2018-07-14T02:49:49.304Z,19.30
2018-07-14T02:52:17.821Z,19.30
2018-07-14T02:54:46.372Z,19.30
2018-07-14T02:57:14.868Z,19.30
2018-07-14T03:02:11.524Z,19.20
2018-07-14T03:04:39.994Z,19.20
2018-07-14T03:07:08.493Z,19.10
2018-07-14T03:09:36.953Z,19.10
2018-07-14T03:12:05.566Z,19.10
2018-07-14T03:14:34.013Z,19.10
2018-07-14T03:17:02.492Z,19.00
2018-07-14T03:19:31.016Z,19.00
2018-07-14T03:21:59.457Z,19.00
2018-07-14T03:24:27.909Z,19.00
2018-07-14T03:26:56.384Z,18.90
2018-07-14T03:29:24.823Z,19.00
2018-07-14T03:34:21.421Z,19.10
2018-07-14T03:36:49.945Z,19.10
2018-07-14T03:39:18.346Z,19.00
2018-07-14T03:41:46.810Z,19.00
2018-07-14T03:46:43.451Z,18.90
2018-07-14T03:49:11.921Z,19.00
2018-07-14T03:51:40.402Z,18.90
2018-07-14T03:54:08.897Z,18.80
2018-07-14T03:56:37.379Z,18.80
2018-07-14T03:59:06.400Z,18.90
2018-07-14T04:01:34.855Z,18.90
2018-07-14T04:04:03.387Z,19.00
2018-07-14T04:06:31.873Z,19.00
2018-07-14T04:09:00.328Z,19.10
2018-07-14T04:13:56.952Z,19.60
2018-07-14T04:16:25.421Z,19.70
2018-07-14T04:18:53.919Z,19.60
2018-07-14T04:21:22.384Z,19.60
2018-07-14T04:23:50.851Z,19.70
2018-07-14T04:26:19.320Z,20.00
2018-07-14T04:28:47.785Z,20.20
2018-07-14T04:31:16.232Z,20.10
2018-07-14T04:33:44.728Z,20.40
2018-07-14T04:36:13.216Z,20.60
2018-07-14T04:38:41.684Z,20.50
2018-07-14T04:41:10.137Z,20.60
2018-07-14T04:43:38.619Z,20.90
2018-07-14T04:46:07.140Z,20.60
2018-07-14T04:51:03.795Z,20.60
2018-07-14T04:58:28.597Z,21.60
2018-07-14T05:00:57.093Z,21.90
2018-07-14T05:03:25.564Z,22.20
2018-07-14T05:05:54.047Z,22.00
2018-07-14T05:08:22.503Z,22.00
2018-07-14T05:10:51.000Z,22.30
2018-07-14T05:13:19.489Z,22.50
2018-07-14T05:15:47.973Z,22.50
2018-07-14T05:18:16.454Z,22.20
2018-07-14T05:20:44.935Z,21.60
2018-07-14T05:23:13.388Z,20.90
2018-07-14T05:25:41.860Z,20.90
2018-07-14T05:28:10.377Z,20.50
2018-07-14T05:30:38.875Z,20.60
2018-07-14T05:33:07.405Z,20.30
2018-07-14T05:35:36.082Z,20.30
2018-07-14T05:38:04.565Z,20.50
2018-07-14T05:40:33.059Z,20.60
2018-07-14T05:43:01.516Z,20.50
2018-07-14T05:45:30.007Z,20.90
2018-07-14T05:47:58.479Z,21.40
2018-07-14T05:50:27.009Z,21.60
2018-07-14T05:52:55.484Z,21.20
2018-07-14T05:57:52.124Z,22.20
2018-07-14T06:00:20.737Z,22.00
2018-07-14T06:02:49.197Z,22.00
2018-07-14T06:05:17.675Z,22.40
2018-07-14T06:07:46.190Z,22.60
2018-07-14T06:10:14.645Z,22.50
2018-07-14T06:12:43.160Z,22.60
2018-07-14T06:15:11.649Z,22.70
2018-07-14T06:17:40.112Z,22.80
2018-07-14T06:20:09.439Z,22.70
2018-07-14T06:22:37.933Z,22.90
2018-07-14T06:25:06.817Z,22.90
2018-07-14T06:27:35.313Z,22.90
2018-07-14T06:30:04.816Z,23.20
2018-07-14T06:32:33.280Z,23.40
2018-07-14T06:35:01.729Z,23.40
2018-07-14T06:37:30.240Z,23.30
2018-07-14T06:42:26.822Z,23.30
2018-07-14T06:44:55.313Z,23.20
2018-07-14T06:47:23.789Z,23.00
2018-07-14T06:49:52.260Z,23.60
2018-07-14T06:52:20.735Z,23.90
2018-07-14T06:54:49.170Z,23.20
2018-07-14T06:57:17.692Z,23.50
2018-07-14T06:59:46.161Z,23.60
2018-07-14T07:04:42.788Z,23.30
2018-07-14T07:07:11.286Z,23.80
2018-07-14T07:09:39.784Z,23.60
2018-07-14T07:14:36.414Z,23.90
2018-07-14T07:17:04.896Z,23.90
2018-07-14T07:19:33.362Z,23.80
2018-07-14T07:22:01.846Z,23.90
2018-07-14T07:24:30.409Z,23.80
2018-07-14T07:26:58.893Z,23.80
2018-07-14T07:29:27.357Z,23.90
2018-07-14T07:31:55.843Z,24.10
2018-07-14T07:34:24.300Z,24.50
2018-07-14T07:41:49.095Z,24.80
2018-07-14T07:44:17.556Z,25.10
2018-07-14T07:46:46.019Z,25.10
2018-07-14T07:49:14.491Z,25.10
2018-07-14T07:51:42.987Z,24.80
2018-07-14T07:54:11.432Z,24.70
2018-07-14T07:56:39.988Z,25.00
2018-07-14T07:59:08.536Z,24.80
2018-07-14T08:01:36.940Z,25.00
2018-07-14T08:04:05.505Z,25.20
2018-07-14T08:06:33.997Z,25.20
2018-07-14T08:09:02.467Z,24.90
2018-07-14T08:11:30.964Z,25.00
2018-07-14T08:13:59.436Z,25.20
2018-07-14T08:16:27.882Z,25.40
2018-07-14T08:18:56.379Z,25.40
2018-07-14T08:21:24.843Z,25.40
2018-07-14T08:23:53.315Z,25.60
2018-07-14T08:26:21.803Z,25.60
2018-07-14T08:28:50.296Z,25.50
2018-07-14T08:31:18.834Z,25.70
2018-07-14T08:33:47.395Z,25.80
2018-07-14T08:36:15.964Z,25.70
2018-07-14T08:38:44.536Z,25.70
2018-07-14T08:41:13.012Z,25.60
2018-07-14T08:43:41.597Z,25.60
2018-07-14T08:46:09.960Z,25.40
2018-07-14T08:53:34.825Z,25.70
2018-07-14T08:56:03.311Z,25.90
2018-07-14T08:58:32.895Z,26.00
2018-07-14T09:01:01.412Z,25.70
2018-07-14T09:03:29.916Z,25.90
2018-07-14T09:05:58.385Z,26.10
2018-07-14T09:10:55.127Z,25.80
2018-07-14T09:13:23.723Z,25.70
2018-07-14T09:15:52.164Z,26.10
2018-07-14T09:18:20.627Z,26.30
2018-07-14T09:23:17.320Z,26.10
2018-07-14T09:25:45.903Z,26.20
2018-07-14T09:28:14.485Z,26.30
2018-07-14T09:30:43.046Z,26.40
2018-07-14T09:33:11.515Z,26.50
2018-07-14T09:35:40.050Z,26.30
2018-07-14T09:38:08.551Z,26.40
2018-07-14T09:40:37.041Z,26.40
2018-07-14T09:43:05.513Z,26.50
2018-07-14T09:45:34.001Z,26.60
2018-07-14T09:48:02.560Z,26.80
2018-07-14T09:50:31.026Z,26.70
2018-07-14T09:52:59.468Z,27.00
2018-07-14T09:55:27.931Z,27.10
2018-07-14T09:57:56.396Z,27.20
2018-07-14T10:02:58.363Z,27.00
2018-07-14T10:05:26.899Z,27.20
2018-07-14T10:07:55.415Z,27.50
2018-07-14T10:10:24.283Z,27.60
2018-07-14T10:12:52.941Z,27.70
2018-07-14T10:15:22.084Z,27.50
2018-07-14T10:17:51.141Z,27.60
2018-07-14T10:20:19.832Z,27.30
2018-07-14T10:25:16.599Z,27.40
2018-07-14T10:27:45.069Z,27.60
2018-07-14T10:32:41.776Z,28.00
2018-07-14T10:35:10.367Z,28.20
2018-07-14T10:37:38.933Z,28.00
2018-07-14T10:40:07.431Z,28.30
2018-07-14T10:42:35.909Z,28.10
2018-07-14T10:45:04.500Z,28.40
2018-07-14T10:47:32.962Z,28.20
2018-07-14T10:50:01.435Z,28.20
2018-07-14T10:52:29.899Z,28.40
2018-07-14T10:57:26.557Z,28.60
2018-07-14T10:59:55.048Z,28.30
2018-07-14T11:02:23.541Z,28.30
2018-07-14T11:04:52.088Z,28.20
2018-07-14T11:07:20.571Z,28.30
2018-07-14T11:09:49.047Z,28.50
2018-07-14T11:12:17.560Z,28.30
2018-07-14T11:14:46.057Z,28.60
2018-07-14T11:22:10.844Z,28.50
2018-07-14T11:24:39.312Z,28.90
2018-07-14T11:27:07.803Z,28.80
2018-07-14T11:29:36.280Z,28.90
2018-07-14T11:32:04.775Z,28.90
2018-07-14T11:37:01.478Z,29.10
2018-07-14T11:39:29.947Z,29.20
2018-07-14T11:41:58.422Z,28.80
2018-07-14T11:44:26.915Z,28.70
2018-07-14T11:46:55.423Z,28.90
2018-07-14T11:49:23.887Z,29.00
2018-07-14T11:51:52.388Z,29.00
2018-07-14T11:54:20.926Z,29.00
2018-07-14T11:56:49.453Z,29.10
2018-07-14T11:59:17.959Z,29.20
2018-07-14T12:01:46.468Z,29.00
2018-07-14T12:04:14.955Z,28.90
2018-07-14T12:06:43.504Z,29.30
2018-07-14T12:09:12.005Z,29.30
2018-07-14T12:14:08.780Z,29.70
2018-07-14T12:16:37.273Z,29.40
2018-07-14T12:19:05.772Z,29.70
2018-07-14T12:21:34.343Z,29.70
2018-07-14T12:24:02.815Z,29.80
2018-07-14T12:26:31.317Z,30.10
2018-07-14T12:28:59.763Z,29.90
2018-07-14T12:33:56.386Z,29.50
2018-07-14T12:36:24.926Z,29.90
2018-07-14T12:38:53.368Z,29.90
2018-07-14T12:41:21.853Z,29.90
2018-07-14T12:46:18.503Z,29.90
2018-07-14T12:48:46.981Z,30.00
2018-07-14T12:51:15.481Z,30.30
2018-07-14T12:56:12.269Z,30.20
2018-07-14T12:58:41.001Z,30.30
2018-07-14T13:01:09.564Z,30.50
2018-07-14T13:03:38.028Z,30.80
2018-07-14T13:06:06.671Z,30.90
2018-07-14T13:08:35.223Z,30.70
2018-07-14T13:11:03.857Z,30.50
2018-07-14T13:13:32.340Z,30.30
2018-07-14T13:16:00.797Z,30.10
2018-07-14T13:20:57.453Z,29.90
2018-07-14T13:23:25.980Z,29.80
2018-07-14T13:25:54.524Z,29.70
2018-07-14T13:30:51.434Z,29.50
2018-07-14T13:33:19.921Z,29.90
2018-07-14T13:35:48.401Z,30.30
2018-07-14T13:38:16.855Z,30.20
2018-07-14T13:40:45.306Z,30.30
2018-07-14T13:45:41.949Z,30.20
2018-07-14T13:48:10.456Z,30.20
2018-07-14T13:53:07.095Z,30.40
2018-07-14T13:55:35.645Z,30.60
2018-07-14T13:58:04.264Z,30.20
2018-07-14T14:00:32.759Z,30.00
2018-07-14T14:05:29.369Z,30.10
2018-07-14T14:07:57.813Z,30.10
2018-07-14T14:10:26.348Z,29.80
2018-07-14T14:12:54.879Z,29.90
2018-07-14T14:15:23.337Z,30.30
2018-07-14T14:17:51.779Z,30.10
2018-07-14T14:20:20.335Z,30.00
2018-07-14T14:22:48.784Z,29.80
2018-07-14T14:27:45.421Z,29.70
2018-07-14T14:30:13.930Z,29.70
2018-07-14T14:32:42.392Z,29.60
2018-07-14T14:35:10.888Z,29.80
2018-07-14T14:40:07.509Z,29.60
2018-07-14T14:42:36.055Z,29.40
2018-07-14T14:45:05.228Z,29.40
2018-07-14T14:47:33.686Z,29.40
2018-07-14T14:52:30.321Z,29.20
2018-07-14T14:54:58.800Z,29.20
2018-07-14T14:57:27.302Z,29.50
2018-07-14T14:59:55.820Z,29.70
2018-07-14T15:02:24.352Z,29.70
2018-07-14T15:04:52.886Z,29.60
2018-07-14T15:07:21.319Z,29.50
2018-07-14T15:09:49.799Z,29.60
2018-07-14T15:12:18.344Z,29.30
2018-07-14T15:14:46.795Z,29.00
2018-07-14T15:19:43.378Z,29.00
2018-07-14T15:22:11.831Z,29.50
2018-07-14T15:27:08.716Z,29.70
2018-07-14T15:29:37.167Z,29.50
2018-07-14T15:32:05.668Z,29.50
2018-07-14T15:34:34.099Z,29.80
2018-07-14T15:37:02.828Z,29.80
2018-07-14T15:39:31.276Z,30.00
2018-07-14T15:41:59.777Z,30.00
2018-07-14T15:44:28.268Z,29.60
2018-07-14T15:46:56.735Z,29.40
2018-07-14T15:49:25.453Z,29.20
2018-07-14T15:51:53.915Z,29.10
2018-07-14T15:56:50.533Z,29.20
2018-07-14T15:59:18.971Z,29.50
2018-07-14T16:01:47.479Z,29.50
2018-07-14T16:04:15.937Z,29.40
2018-07-14T16:06:44.408Z,29.10
2018-07-14T16:09:12.864Z,29.20
2018-07-14T16:11:41.333Z,29.20
2018-07-14T16:14:09.800Z,29.20
2018-07-14T16:16:38.265Z,29.20
2018-07-14T16:19:06.756Z,29.20
2018-07-14T16:21:35.175Z,29.40
2018-07-14T16:26:31.792Z,29.30
2018-07-14T16:29:00.235Z,29.30
2018-07-14T16:31:28.699Z,29.30
2018-07-14T16:36:25.372Z,29.30
2018-07-14T16:38:54.060Z,29.20
2018-07-14T16:41:22.566Z,29.20
2018-07-14T16:43:51.051Z,29.30
2018-07-14T16:46:19.507Z,29.30
2018-07-14T16:48:47.969Z,29.20
2018-07-14T16:51:16.527Z,29.20
2018-07-14T16:53:45.006Z,29.30
2018-07-14T16:56:13.545Z,29.70
2018-07-14T16:58:42.182Z,29.70
2018-07-14T17:01:10.581Z,29.40
2018-07-14T17:06:07.192Z,29.40
2018-07-14T17:08:35.658Z,29.30
2018-07-14T17:11:04.163Z,29.30
2018-07-14T17:13:32.664Z,29.20
2018-07-14T17:16:01.169Z,29.10
2018-07-14T17:18:29.650Z,29.20
2018-07-14T17:20:58.129Z,29.10
2018-07-14T17:23:26.597Z,29.00
2018-07-14T17:28:23.212Z,28.80
2018-07-14T17:30:51.688Z,28.80
2018-07-14T17:33:20.176Z,29.00
2018-07-14T17:35:48.619Z,29.10
2018-07-14T17:38:17.081Z,28.90
2018-07-14T17:40:45.530Z,29.00
2018-07-14T17:43:14.073Z,29.10
2018-07-14T17:45:42.507Z,28.90
2018-07-14T17:48:10.997Z,28.90
2018-07-14T17:50:39.467Z,28.70
2018-07-14T17:53:08.003Z,28.50
2018-07-14T17:55:37.352Z,28.40
2018-07-14T17:58:05.890Z,28.40
2018-07-14T18:00:34.378Z,28.50
2018-07-14T18:03:02.850Z,28.50
2018-07-14T18:05:31.305Z,28.50
2018-07-14T18:10:27.990Z,28.40
2018-07-14T18:12:56.509Z,28.50
2018-07-14T18:15:25.001Z,28.40
2018-07-14T18:17:53.475Z,28.40
2018-07-14T18:20:21.943Z,28.40
2018-07-14T18:22:50.409Z,28.40
2018-07-14T18:25:18.865Z,28.20
2018-07-14T18:27:47.334Z,28.10
2018-07-14T18:30:15.834Z,28.00
2018-07-14T18:32:44.300Z,27.90
2018-07-14T18:35:12.748Z,27.90
2018-07-14T18:37:41.233Z,27.70
2018-07-14T18:40:09.704Z,27.70
2018-07-14T18:42:38.183Z,27.50
2018-07-14T18:45:06.692Z,27.50
2018-07-14T18:47:35.177Z,27.50
2018-07-14T18:50:03.713Z,27.40
2018-07-14T18:52:32.180Z,27.30
2018-07-14T18:55:00.656Z,27.30
2018-07-14T18:57:29.141Z,27.20
2018-07-14T18:59:57.628Z,27.10
2018-07-14T19:02:26.109Z,27.20
2018-07-14T19:04:54.593Z,27.10
2018-07-14T19:07:23.062Z,26.90
2018-07-14T19:09:51.545Z,27.00
2018-07-14T19:12:19.995Z,26.90
2018-07-14T19:17:16.647Z,26.90
2018-07-14T19:19:45.108Z,26.80
2018-07-14T19:22:13.576Z,26.80
2018-07-14T19:24:42.122Z,26.80
2018-07-14T19:27:10.552Z,26.70
2018-07-14T19:29:39.027Z,26.50
2018-07-14T19:32:07.937Z,26.50
2018-07-14T19:34:36.421Z,26.50
2018-07-14T19:37:04.885Z,26.30
2018-07-14T19:39:33.359Z,26.30
2018-07-14T19:42:01.811Z,26.30
2018-07-14T19:44:30.307Z,26.30
2018-07-14T19:46:58.880Z,26.30
2018-07-14T19:49:27.346Z,26.20
2018-07-14T19:51:55.793Z,26.10
2018-07-14T19:54:24.268Z,26.00
2018-07-14T19:56:52.740Z,25.90
2018-07-14T19:59:21.238Z,25.80
2018-07-14T20:01:49.681Z,25.70
2018-07-14T20:04:18.144Z,25.60
2018-07-14T20:06:46.625Z,25.50
2018-07-14T20:09:15.149Z,25.40
2018-07-14T20:11:50.009Z,25.30
2018-07-14T20:16:46.609Z,25.30
2018-07-14T20:19:15.068Z,25.20
2018-07-14T20:21:43.528Z,25.10
2018-07-14T20:26:40.129Z,24.90
2018-07-14T20:29:08.592Z,24.90
2018-07-14T20:31:37.130Z,24.80
2018-07-14T20:34:05.801Z,24.80
2018-07-14T20:36:34.295Z,24.80
2018-07-14T20:39:02.785Z,24.70
2018-07-14T20:41:31.291Z,24.60
2018-07-14T20:43:59.720Z,24.40
2018-07-14T20:46:28.204Z,24.40
2018-07-14T20:48:56.667Z,24.30
2018-07-14T20:51:25.155Z,24.30
2018-07-14T20:53:53.624Z,24.30
2018-07-14T20:56:22.124Z,24.40
2018-07-14T21:01:18.799Z,24.40
2018-07-14T21:03:47.269Z,24.40
2018-07-14T21:06:15.771Z,24.30
2018-07-14T21:08:44.198Z,24.30
2018-07-14T21:11:12.698Z,24.20
2018-07-14T21:13:41.180Z,24.20
2018-07-14T21:16:09.756Z,24.00
2018-07-14T21:18:38.244Z,24.00
2018-07-14T21:21:06.893Z,23.90
2018-07-14T21:23:35.361Z,23.90
2018-07-14T21:28:32.046Z,23.90
2018-07-14T21:31:00.527Z,23.90
2018-07-14T21:33:29.042Z,23.90
2018-07-14T21:35:57.564Z,23.90
2018-07-14T21:40:54.249Z,23.60
2018-07-14T21:43:22.724Z,23.40
2018-07-14T21:45:51.337Z,23.40
2018-07-14T21:48:19.925Z,23.30
2018-07-14T21:53:16.856Z,23.20
2018-07-14T21:55:45.433Z,23.30
2018-07-14T21:58:13.958Z,23.30
2018-07-14T22:00:47.891Z,23.30
2018-07-14T22:03:16.439Z,23.30
2018-07-14T22:05:44.954Z,23.30
2018-07-14T22:08:13.455Z,23.10
2018-07-14T22:13:10.186Z,22.90
2018-07-14T22:15:38.678Z,22.70
2018-07-14T22:18:07.202Z,22.60
2018-07-14T22:20:35.743Z,22.60
2018-07-14T22:23:04.318Z,22.60
2018-07-14T22:25:32.853Z,22.60
2018-07-14T22:28:01.336Z,22.60
2018-07-14T22:30:29.793Z,22.80
2018-07-14T22:35:26.486Z,22.40
2018-07-14T22:37:55.312Z,22.40
2018-07-14T22:40:23.803Z,22.40
2018-07-14T22:42:52.320Z,22.40
2018-07-14T22:45:20.897Z,22.40
2018-07-14T22:47:49.384Z,22.40
2018-07-14T22:50:17.855Z,22.30
2018-07-14T22:52:46.337Z,22.30
2018-07-14T22:55:14.795Z,22.20
2018-07-14T22:57:43.317Z,22.10
2018-07-14T23:00:11.825Z,22.10
2018-07-14T23:02:40.301Z,22.10
2018-07-14T23:05:08.793Z,22.10
2018-07-14T23:07:37.259Z,22.20
2018-07-14T23:10:05.826Z,22.10
2018-07-14T23:12:34.358Z,22.10
2018-07-14T23:15:03.048Z,22.00
2018-07-14T23:17:31.503Z,21.90
2018-07-14T23:19:59.935Z,21.90
2018-07-14T23:22:28.436Z,21.80
2018-07-14T23:24:56.929Z,21.50
2018-07-14T23:27:25.747Z,21.50
2018-07-14T23:29:54.239Z,21.50
2018-07-14T23:32:22.707Z,21.30
2018-07-14T23:34:51.191Z,21.20
2018-07-14T23:37:19.727Z,21.10
2018-07-14T23:39:48.209Z,21.10
2018-07-14T23:42:16.690Z,21.00
2018-07-14T23:44:45.203Z,21.10
2018-07-14T23:47:13.665Z,21.10
2018-07-14T23:49:42.156Z,20.90
2018-07-14T23:52:10.619Z,20.90
2018-07-14T23:54:39.103Z,20.90
2018-07-14T23:57:07.851Z,20.80
2018-07-14T23:59:36.358Z,20.80
